GIA872 WARR-WIII
Flight info
| Callsign | GIA872 |
|---|---|
| Flight time | N/A |
| Altitude | 34000 |
| Route | LASEM T2 KALUT T6 KURUS |
| Aircraft | A339/H-SADE1E2E3GHIJ3J5M1P2RWXY/LB2D1 |
Departure
| Time | N/A |
|---|---|
| Airport | Juanda International Airport (WARR) |
Arrival
| Time | 2026-05-07 14:55 |
|---|---|
| Airport | Soekarno-Hatta International Airport (WIII) |
| Time | Latitude | Longitude | Altitude | Speed | Heading |
|---|---|---|---|---|---|
| 2026-05-07 14:21 | -5.96475 | 109.48130 | 33888 ft | 464 kts | 270° |
| 2026-05-07 14:21 | -5.96471 | 109.44949 | 33888 ft | 464 kts | 270° |
| 2026-05-07 14:22 | -5.96462 | 109.38671 | 33888 ft | 463 kts | 270° |
| 2026-05-07 14:22 | -5.96452 | 109.32375 | 33888 ft | 463 kts | 270° |
| 2026-05-07 14:23 | -5.96440 | 109.25986 | 33887 ft | 463 kts | 270° |
| 2026-05-07 14:23 | -5.96428 | 109.19546 | 33887 ft | 463 kts | 270° |
| 2026-05-07 14:24 | -5.96415 | 109.13212 | 33887 ft | 463 kts | 270° |
| 2026-05-07 14:24 | -5.96402 | 109.06792 | 33888 ft | 463 kts | 270° |
| 2026-05-07 14:25 | -5.96388 | 109.00384 | 33888 ft | 463 kts | 270° |
| 2026-05-07 14:25 | -5.96374 | 108.94206 | 33888 ft | 463 kts | 270° |
| 2026-05-07 14:26 | -5.96358 | 108.87830 | 33888 ft | 463 kts | 270° |
| 2026-05-07 14:26 | -5.96342 | 108.81408 | 33888 ft | 463 kts | 270° |
| 2026-05-07 14:27 | -5.96324 | 108.75081 | 33888 ft | 463 kts | 270° |
| 2026-05-07 14:27 | -5.96306 | 108.68630 | 33888 ft | 463 kts | 270° |
| 2026-05-07 14:28 | -5.96286 | 108.62271 | 33888 ft | 463 kts | 270° |
| 2026-05-07 14:28 | -5.96265 | 108.56139 | 33888 ft | 463 kts | 270° |
| 2026-05-07 14:29 | -5.96244 | 108.49700 | 33888 ft | 463 kts | 270° |
| 2026-05-07 14:29 | -5.96234 | 108.43296 | 33888 ft | 463 kts | 270° |
| 2026-05-07 14:30 | -5.96235 | 108.36831 | 33888 ft | 463 kts | 270° |
| 2026-05-07 14:30 | -5.96230 | 108.30482 | 33882 ft | 461 kts | 270° |
| 2026-05-07 14:30 | -5.96227 | 108.27334 | 33654 ft | 458 kts | 270° |
| 2026-05-07 14:31 | -5.96224 | 108.24342 | 32860 ft | 465 kts | 270° |
| 2026-05-07 14:31 | -5.96220 | 108.21083 | 31907 ft | 472 kts | 270° |
| 2026-05-07 14:31 | -5.96215 | 108.17829 | 31273 ft | 471 kts | 270° |
| 2026-05-07 14:31 | -5.96212 | 108.15650 | 31013 ft | 467 kts | 270° |
| 2026-05-07 14:32 | -5.96205 | 108.11365 | 30882 ft | 449 kts | 270° |
| 2026-05-07 14:32 | -5.96199 | 108.08315 | 30878 ft | 435 kts | 270° |
| 2026-05-07 14:32 | -5.96195 | 108.06288 | 30877 ft | 425 kts | 270° |
| 2026-05-07 14:32 | -5.96187 | 108.02444 | 30877 ft | 406 kts | 270° |
| 2026-05-07 14:33 | -5.96182 | 107.99677 | 30877 ft | 393 kts | 270° |
| 2026-05-07 14:33 | -5.96180 | 107.96956 | 30763 ft | 384 kts | 270° |
| 2026-05-07 14:33 | -5.96182 | 107.94299 | 30223 ft | 387 kts | 270° |
| 2026-05-07 14:33 | -5.96183 | 107.92482 | 29892 ft | 388 kts | 270° |
| 2026-05-07 14:34 | -5.96185 | 107.88914 | 29360 ft | 385 kts | 270° |
| 2026-05-07 14:34 | -5.96186 | 107.86224 | 28935 ft | 385 kts | 270° |
| 2026-05-07 14:34 | -5.96187 | 107.83557 | 28454 ft | 386 kts | 270° |
| 2026-05-07 14:34 | -5.96186 | 107.81088 | 27990 ft | 387 kts | 270° |
| 2026-05-07 14:35 | -5.96186 | 107.78386 | 27478 ft | 388 kts | 270° |
| 2026-05-07 14:35 | -5.96185 | 107.75706 | 26969 ft | 389 kts | 270° |
| 2026-05-07 14:35 | -5.96183 | 107.72958 | 26445 ft | 391 kts | 270° |
| 2026-05-07 14:35 | -5.96182 | 107.70270 | 25934 ft | 392 kts | 270° |
| 2026-05-07 14:36 | -5.96181 | 107.67548 | 25418 ft | 392 kts | 270° |
| 2026-05-07 14:36 | -5.96181 | 107.64783 | 24895 ft | 393 kts | 270° |
| 2026-05-07 14:36 | -5.96183 | 107.62068 | 24361 ft | 394 kts | 270° |
| 2026-05-07 14:36 | -5.96185 | 107.59305 | 23859 ft | 394 kts | 270° |
| 2026-05-07 14:37 | -5.96187 | 107.56716 | 23378 ft | 394 kts | 270° |
| 2026-05-07 14:37 | -5.96188 | 107.51221 | 22375 ft | 393 kts | 270° |
| 2026-05-07 14:37 | -5.96188 | 107.48461 | 21804 ft | 395 kts | 270° |
| 2026-05-07 14:38 | -5.96188 | 107.46635 | 21448 ft | 395 kts | 270° |
| 2026-05-07 14:38 | -5.96187 | 107.42989 | 20787 ft | 393 kts | 270° |
| 2026-05-07 14:38 | -5.96185 | 107.40256 | 20307 ft | 392 kts | 270° |
| 2026-05-07 14:38 | -5.96184 | 107.37542 | 19834 ft | 390 kts | 270° |
| 2026-05-07 14:39 | -5.96183 | 107.34817 | 19360 ft | 388 kts | 270° |
| 2026-05-07 14:39 | -5.96181 | 107.32137 | 18893 ft | 387 kts | 270° |
| 2026-05-07 14:39 | -5.96180 | 107.29430 | 18420 ft | 385 kts | 270° |
| 2026-05-07 14:39 | -5.96178 | 107.26781 | 17954 ft | 383 kts | 270° |
| 2026-05-07 14:40 | -5.96174 | 107.24103 | 17480 ft | 382 kts | 270° |
| 2026-05-07 14:40 | -5.96170 | 107.21513 | 17022 ft | 380 kts | 270° |
| 2026-05-07 14:40 | -5.96165 | 107.18862 | 16554 ft | 378 kts | 270° |
| 2026-05-07 14:40 | -5.96160 | 107.16267 | 16099 ft | 376 kts | 270° |
| 2026-05-07 14:41 | -5.96155 | 107.13646 | 15639 ft | 374 kts | 270° |
| 2026-05-07 14:41 | -5.96149 | 107.11035 | 15180 ft | 372 kts | 270° |
| 2026-05-07 14:41 | -5.96144 | 107.08451 | 14726 ft | 371 kts | 270° |
| 2026-05-07 14:41 | -5.96138 | 107.05913 | 14278 ft | 369 kts | 270° |
| 2026-05-07 14:42 | -5.96135 | 107.04242 | 13985 ft | 367 kts | 270° |
| 2026-05-07 14:42 | -5.96129 | 107.00942 | 13692 ft | 356 kts | 270° |
| 2026-05-07 14:42 | -5.96124 | 106.98489 | 13420 ft | 350 kts | 270° |
| 2026-05-07 14:42 | -5.96119 | 106.96064 | 12974 ft | 349 kts | 270° |
| 2026-05-07 14:43 | -5.96112 | 106.93630 | 12541 ft | 348 kts | 270° |
| 2026-05-07 14:43 | -5.96105 | 106.91216 | 12117 ft | 347 kts | 270° |
| 2026-05-07 14:43 | -5.96098 | 106.88808 | 11700 ft | 345 kts | 270° |
| 2026-05-07 14:43 | -5.96094 | 106.87276 | 11435 ft | 344 kts | 270° |
| 2026-05-07 14:44 | -5.96084 | 106.84100 | 10888 ft | 342 kts | 270° |
| 2026-05-07 14:44 | -5.96078 | 106.81734 | 10482 ft | 341 kts | 270° |
| 2026-05-07 14:44 | -5.96129 | 106.79356 | 10068 ft | 339 kts | 263° |
| 2026-05-07 14:44 | -5.96719 | 106.77080 | 9673 ft | 337 kts | 249° |
| 2026-05-07 14:45 | -5.97574 | 106.74923 | 9261 ft | 336 kts | 247° |
| 2026-05-07 14:45 | -5.98475 | 106.72763 | 8832 ft | 335 kts | 247° |
| 2026-05-07 14:45 | -5.99364 | 106.70629 | 8406 ft | 335 kts | 247° |
| 2026-05-07 14:45 | -6.00254 | 106.68469 | 7976 ft | 334 kts | 248° |
| 2026-05-07 14:46 | -6.01108 | 106.66376 | 7558 ft | 333 kts | 248° |
| 2026-05-07 14:46 | -6.01974 | 106.64244 | 7134 ft | 332 kts | 248° |
| 2026-05-07 14:46 | -6.02840 | 106.62106 | 6716 ft | 331 kts | 248° |
| 2026-05-07 14:46 | -6.03692 | 106.60000 | 6298 ft | 331 kts | 248° |
| 2026-05-07 14:47 | -6.04554 | 106.57870 | 5896 ft | 329 kts | 248° |
| 2026-05-07 14:47 | -6.05392 | 106.55796 | 5601 ft | 324 kts | 248° |
| 2026-05-07 14:47 | -6.06231 | 106.53721 | 5216 ft | 323 kts | 248° |
| 2026-05-07 14:47 | -6.07066 | 106.51650 | 4820 ft | 322 kts | 248° |
| 2026-05-07 14:48 | -6.07899 | 106.49586 | 4423 ft | 321 kts | 248° |
| 2026-05-07 14:48 | -6.08720 | 106.47551 | 4030 ft | 320 kts | 248° |
| 2026-05-07 14:48 | -6.09547 | 106.45502 | 3634 ft | 320 kts | 248° |
| 2026-05-07 14:48 | -6.10374 | 106.43456 | 3234 ft | 319 kts | 247° |
| 2026-05-07 14:49 | -6.11549 | 106.41596 | 2900 ft | 316 kts | 223° |
| 2026-05-07 14:49 | -6.13416 | 106.40563 | 2652 ft | 309 kts | 193° |
| 2026-05-07 14:49 | -6.15518 | 106.40627 | 2498 ft | 300 kts | 162° |
| 2026-05-07 14:49 | -6.17212 | 106.41671 | 2363 ft | 292 kts | 135° |
| 2026-05-07 14:50 | -6.18149 | 106.42967 | 2240 ft | 283 kts | 112° |
| 2026-05-07 14:50 | -6.18406 | 106.44835 | 2211 ft | 266 kts | 83° |
| 2026-05-07 14:50 | -6.18075 | 106.46563 | 2162 ft | 241 kts | 77° |
| 2026-05-07 14:50 | -6.17755 | 106.48160 | 2185 ft | 226 kts | 81° |
| 2026-05-07 14:51 | -6.17449 | 106.49657 | 2169 ft | 214 kts | 70° |
| 2026-05-07 14:51 | -6.16896 | 106.51001 | 2180 ft | 202 kts | 65° |
| 2026-05-07 14:51 | -6.16338 | 106.52247 | 2188 ft | 191 kts | 66° |
| 2026-05-07 14:51 | -6.15830 | 106.53413 | 2194 ft | 175 kts | 66° |
| 2026-05-07 14:52 | -6.15366 | 106.54517 | 2111 ft | 170 kts | 67° |
| 2026-05-07 14:52 | -6.14924 | 106.55596 | 1849 ft | 169 kts | 68° |
| 2026-05-07 14:52 | -6.14492 | 106.56665 | 1618 ft | 165 kts | 68° |
| 2026-05-07 14:52 | -6.14076 | 106.57704 | 1394 ft | 157 kts | 68° |
| 2026-05-07 14:53 | -6.13684 | 106.58684 | 1194 ft | 148 kts | 68° |
| 2026-05-07 14:53 | -6.13311 | 106.59617 | 1014 ft | 144 kts | 68° |
| 2026-05-07 14:53 | -6.12943 | 106.60542 | 846 ft | 144 kts | 68° |
| 2026-05-07 14:53 | -6.12619 | 106.61352 | 690 ft | 143 kts | 68° |
| 2026-05-07 14:54 | -6.12245 | 106.62288 | 506 ft | 143 kts | 68° |
| 2026-05-07 14:54 | -6.11881 | 106.63199 | 331 ft | 142 kts | 68° |
| 2026-05-07 14:54 | -6.11522 | 106.64122 | 154 ft | 142 kts | 68° |
| 2026-05-07 14:54 | -6.11177 | 106.64988 | 58 ft | 132 kts | 68° |
| 2026-05-07 14:55 | -6.10894 | 106.65689 | 57 ft | 85 kts | 69° |
| 2026-05-07 14:55 | -6.10729 | 106.66110 | 57 ft | 56 kts | 69° |
| 2026-05-07 14:55 | -6.10632 | 106.66396 | 56 ft | 33 kts | 82° |
| 2026-05-07 14:55 | -6.10644 | 106.66552 | 57 ft | 11 kts | 99° |
| 2026-05-07 14:56 | -6.10645 | 106.66558 | 56 ft | 0 kts | 99° |
| 2026-05-07 14:56 | -6.10647 | 106.66571 | 57 ft | 6 kts | 99° |
| 2026-05-07 14:56 | -6.10658 | 106.66618 | 57 ft | 8 kts | 120° |
| 2026-05-07 14:57 | -6.10721 | 106.66666 | 57 ft | 17 kts | 153° |
| 2026-05-07 14:57 | -6.10809 | 106.66638 | 57 ft | 15 kts | 242° |
| 2026-05-07 14:57 | -6.10853 | 106.66539 | 57 ft | 15 kts | 248° |
| 2026-05-07 14:57 | -6.10893 | 106.66435 | 57 ft | 16 kts | 249° |
| 2026-05-07 14:58 | -6.10935 | 106.66328 | 57 ft | 16 kts | 248° |
| 2026-05-07 14:58 | -6.10978 | 106.66219 | 57 ft | 17 kts | 248° |
| 2026-05-07 14:58 | -6.11023 | 106.66106 | 57 ft | 18 kts | 248° |
| 2026-05-07 14:58 | -6.11082 | 106.65958 | 57 ft | 25 kts | 248° |
| 2026-05-07 14:59 | -6.11148 | 106.65794 | 57 ft | 24 kts | 248° |
| 2026-05-07 14:59 | -6.11204 | 106.65652 | 57 ft | 13 kts | 248° |
| 2026-05-07 14:59 | -6.11246 | 106.65621 | 57 ft | 7 kts | 183° |
| 2026-05-07 14:59 | -6.11299 | 106.65635 | 57 ft | 9 kts | 159° |
| 2026-05-07 15:00 | -6.11369 | 106.65665 | 57 ft | 13 kts | 147° |
| 2026-05-07 15:00 | -6.11415 | 106.65736 | 57 ft | 15 kts | 102° |
| 2026-05-07 15:00 | -6.11426 | 106.65804 | 57 ft | 9 kts | 99° |
| 2026-05-07 15:00 | -6.11444 | 106.65847 | 57 ft | 6 kts | 130° |
| 2026-05-07 15:01 | -6.11483 | 106.65875 | 57 ft | 8 kts | 152° |
| 2026-05-07 15:01 | -6.11538 | 106.65904 | 57 ft | 10 kts | 152° |
| 2026-05-07 15:01 | -6.11605 | 106.65939 | 57 ft | 13 kts | 154° |
| 2026-05-07 15:01 | -6.11705 | 106.65983 | 57 ft | 16 kts | 159° |
| 2026-05-07 15:02 | -6.11744 | 106.65990 | 57 ft | 3 kts | 199° |
| 2026-05-07 15:02 | -6.11763 | 106.65966 | 57 ft | 3 kts | 245° |
| 2026-05-07 15:02 | -6.11770 | 106.65949 | 57 ft | 0 kts | 246° |